CST,Max TemperatureF,Mean TemperatureF,Min TemperatureF,Max Dew PointF,MeanDew PointF,Min DewpointF,Max Humidity, Mean Humidity, Min Humidity, Max Sea Level PressureIn, Mean Sea Level PressureIn, Min Sea Level PressureIn, Max VisibilityMiles, Mean VisibilityMiles, Min VisibilityMiles, Max Wind SpeedMPH, Mean Wind SpeedMPH, Max Gust SpeedMPH,PrecipitationIn, CloudCover, Events, WindDirDegrees
2012-12-1,69,57,44,48,44,38,82,61,39,30.28,30.21,30.15,10,10,10,16,7,20,0.00,3,,163
2012-12-2,67,61,55,59,55,48,84,74,64,30.19,30.16,30.12,10,10,10,24,12,35,0.00,7,,198
2012-12-3,76,68,60,57,52,46,78,60,41,30.19,30.14,30.09,10,10,10,22,11,29,0.00,3,,188
2012-12-4,68,64,60,61,56,45,97,85,60,30.25,30.13,30.06,10,9,1,17,11,24,0.36,8,Rain-Thunderstorm,234
2012-12-5,61,51,41,45,38,33,93,65,36,30.34,30.25,30.15,10,10,10,10,6,,0.00,2,,47
2012-12-6,57,49,41,51,43,34,96,81,66,30.14,30.07,29.98,10,8,2,8,3,10,0.11,7,Rain,100
2012-12-7,63,58,52,57,54,49,100,89,78,29.96,29.91,29.86,10,9,3,17,8,22,0.01,7,Rain,189
2012-12-8,63,59,54,58,57,52,93,89,84,29.97,29.92,29.87,10,6,0,10,4,15,0.48,8,Fog-Rain-Thunderstorm,282
2012-12-9,65,60,54,61,57,53,100,92,84,29.94,29.85,29.75,10,6,1,22,7,26,1.75,8,Rain-Thunderstorm,175
2012-12-10,59,46,32,57,40,26,93,84,75,30.06,29.85,29.73,10,8,2,22,12,25,0.14,8,Rain,332
2012-12-11,41,34,26,27,23,21,85,68,50,30.29,30.18,30.05,10,10,10,10,3,13,0.00,3,,353
2012-12-12,48,35,22,29,25,20,96,71,45,30.39,30.35,30.29,10,10,7,9,3,13,0.00,0,,60
2012-12-13,53,38,22,30,23,19,92,60,28,30.43,30.36,30.30,10,10,10,6,1,8,0.00,0,,126
2012-12-14,58,43,27,38,30,22,85,61,36,30.33,30.24,30.12,10,10,10,12,4,15,0.00,0,,158
2012-12-15,61,54,46,55,47,38,86,76,66,30.10,29.93,29.83,10,10,5,22,11,28,0.14,7,Rain,177
2012-12-16,64,61,57,57,54,51,90,77,63,29.82,29.76,29.69,10,10,10,16,9,23,0.00,4,,205
2012-12-17,63,54,45,55,50,39,100,82,64,29.80,29.69,29.58,10,9,4,20,9,28,0.08,7,Rain-Thunderstorm,217
2012-12-18,58,48,37,38,35,30,92,64,36,29.93,29.88,29.82,10,10,10,17,7,22,0.00,2,,214
2012-12-19,65,51,36,50,42,35,92,72,52,30.02,29.93,29.78,10,10,10,16,7,24,0.00,0,,147
2012-12-20,61,48,34,55,42,20,93,71,49,29.93,29.62,29.49,10,8,2,36,20,49,0.70,8,Rain,220
2012-12-21,43,36,29,20,17,12,63,48,33,30.29,30.14,29.95,10,10,10,26,16,37,0.00,0,,290
2012-12-22,48,35,21,24,17,12,74,50,26,30.37,30.24,30.10,10,10,10,9,4,15,0.00,0,,207
2012-12-23,58,49,39,47,39,25,100,75,49,30.08,29.96,29.86,10,7,2,15,8,20,T,5,Rain,189
2012-12-24,54,44,34,52,45,30,100,92,83,30.06,29.88,29.78,10,5,1,21,7,24,0.03,8,Rain,319
2012-12-25,38,36,33,33,29,27,89,80,70,30.13,29.99,29.68,10,7,3,26,13,33,0.23,7,Rain,45
2012-12-26,37,35,33,36,31,28,96,89,82,30.12,29.70,29.47,10,6,0,29,16,36,0.79,8,Fog-Rain-Snow-Thunderstorm,332
2012-12-27,35,33,31,28,27,25,85,75,64,30.22,30.16,30.11,10,10,8,13,5,16,0.00,8,,35
2012-12-28,39,36,32,36,33,28,96,88,73,30.11,29.94,29.77,10,7,2,12,5,,0.21,7,Rain,109
2012-12-29,38,35,31,36,29,19,92,84,75,30.40,30.05,29.77,10,7,2,20,12,25,T,8,Rain-Snow,300
2012-12-30,40,30,19,25,22,18,92,76,54,30.55,30.45,30.37,10,9,4,9,3,12,0.00,0,,220
2012-12-31,41,34,26,36,31,25,92,74,55,30.35,30.18,30.04,10,8,2,10,4,15,0.19,6,Rain,141